sensor_id;sensor_type;location;lat;lon;timestamp;P1;durP1;ratioP1;P2;durP2;ratioP2
12059;SDS011;6091;51.432;6.880;2023-10-19T00:01:16;1.08;;;0.95;;
12059;SDS011;6091;51.432;6.880;2023-10-19T00:03:44;1.20;;;1.10;;
12059;SDS011;6091;51.432;6.880;2023-10-19T00:06:12;1.20;;;1.10;;
12059;SDS011;6091;51.432;6.880;2023-10-19T00:08:39;1.40;;;1.30;;
12059;SDS011;6091;51.432;6.880;2023-10-19T00:11:08;1.20;;;1.10;;
12059;SDS011;6091;51.432;6.880;2023-10-19T00:13:48;1.30;;;1.20;;
12059;SDS011;6091;51.432;6.880;2023-10-19T00:16:24;1.27;;;1.17;;
12059;SDS011;6091;51.432;6.880;2023-10-19T00:19:02;1.20;;;1.10;;
12059;SDS011;6091;51.432;6.880;2023-10-19T00:21:30;1.23;;;1.13;;
12059;SDS011;6091;51.432;6.880;2023-10-19T00:24:14;1.10;;;1.00;;
12059;SDS011;6091;51.432;6.880;2023-10-19T00:26:43;1.00;;;1.00;;
12059;SDS011;6091;51.432;6.880;2023-10-19T00:29:10;1.33;;;1.23;;
12059;SDS011;6091;51.432;6.880;2023-10-19T00:31:57;1.40;;;1.20;;
12059;SDS011;6091;51.432;6.880;2023-10-19T00:34:27;1.33;;;1.23;;
12059;SDS011;6091;51.432;6.880;2023-10-19T00:36:57;1.27;;;1.17;;
12059;SDS011;6091;51.432;6.880;2023-10-19T00:39:34;0.90;;;0.90;;
12059;SDS011;6091;51.432;6.880;2023-10-19T00:42:14;1.20;;;1.10;;
12059;SDS011;6091;51.432;6.880;2023-10-19T00:44:44;1.20;;;1.10;;
12059;SDS011;6091;51.432;6.880;2023-10-19T00:47:16;0.80;;;0.80;;
12059;SDS011;6091;51.432;6.880;2023-10-19T00:49:50;1.30;;;1.20;;
12059;SDS011;6091;51.432;6.880;2023-10-19T00:52:17;1.10;;;1.00;;
12059;SDS011;6091;51.432;6.880;2023-10-19T00:54:51;1.33;;;0.90;;
12059;SDS011;6091;51.432;6.880;2023-10-19T00:57:21;1.23;;;1.10;;
12059;SDS011;6091;51.432;6.880;2023-10-19T00:59:59;0.95;;;0.95;;
12059;SDS011;6091;51.432;6.880;2023-10-19T01:02:38;1.20;;;1.10;;
12059;SDS011;6091;51.432;6.880;2023-10-19T01:05:12;1.20;;;1.08;;
12059;SDS011;6091;51.432;6.880;2023-10-19T01:07:40;1.20;;;1.10;;
12059;SDS011;6091;51.432;6.880;2023-10-19T01:10:08;1.73;;;1.30;;
12059;SDS011;6091;51.432;6.880;2023-10-19T01:12:39;1.38;;;1.27;;
12059;SDS011;6091;51.432;6.880;2023-10-19T01:15:07;0.90;;;0.90;;
12059;SDS011;6091;51.432;6.880;2023-10-19T01:17:45;1.13;;;1.10;;
12059;SDS011;6091;51.432;6.880;2023-10-19T01:20:21;0.95;;;0.95;;
12059;SDS011;6091;51.432;6.880;2023-10-19T01:23:08;1.02;;;0.90;;
12059;SDS011;6091;51.432;6.880;2023-10-19T01:25:48;1.30;;;1.20;;
12059;SDS011;6091;51.432;6.880;2023-10-19T01:31:05;0.90;;;0.90;;
12059;SDS011;6091;51.432;6.880;2023-10-19T01:33:35;0.80;;;0.80;;
12059;SDS011;6091;51.432;6.880;2023-10-19T01:36:02;1.15;;;1.08;;
12059;SDS011;6091;51.432;6.880;2023-10-19T01:38:41;1.02;;;0.93;;
12059;SDS011;6091;51.432;6.880;2023-10-19T01:41:09;1.17;;;1.08;;
12059;SDS011;6091;51.432;6.880;2023-10-19T01:43:45;0.90;;;0.90;;
12059;SDS011;6091;51.432;6.880;2023-10-19T01:46:16;0.90;;;0.90;;
12059;SDS011;6091;51.432;6.880;2023-10-19T01:49:01;1.23;;;1.13;;
12059;SDS011;6091;51.432;6.880;2023-10-19T01:51:31;0.93;;;0.93;;
12059;SDS011;6091;51.432;6.880;2023-10-19T01:54:00;0.90;;;0.90;;
12059;SDS011;6091;51.432;6.880;2023-10-19T01:56:27;0.90;;;0.90;;
12059;SDS011;6091;51.432;6.880;2023-10-19T01:58:55;1.30;;;1.08;;
12059;SDS011;6091;51.432;6.880;2023-10-19T02:01:24;1.10;;;1.10;;
12059;SDS011;6091;51.432;6.880;2023-10-19T02:03:58;1.02;;;0.90;;
12059;SDS011;6091;51.432;6.880;2023-10-19T02:06:28;0.90;;;0.90;;
12059;SDS011;6091;51.432;6.880;2023-10-19T02:09:01;1.00;;;1.00;;
12059;SDS011;6091;51.432;6.880;2023-10-19T02:11:45;1.10;;;1.00;;
12059;SDS011;6091;51.432;6.880;2023-10-19T02:14:24;0.80;;;0.80;;
12059;SDS011;6091;51.432;6.880;2023-10-19T02:16:58;0.70;;;0.70;;
12059;SDS011;6091;51.432;6.880;2023-10-19T02:19:30;1.00;;;1.00;;
12059;SDS011;6091;51.432;6.880;2023-10-19T02:21:59;1.00;;;0.90;;
12059;SDS011;6091;51.432;6.880;2023-10-19T02:24:35;0.85;;;0.85;;
12059;SDS011;6091;51.432;6.880;2023-10-19T02:27:02;0.90;;;0.90;;
12059;SDS011;6091;51.432;6.880;2023-10-19T02:29:32;0.90;;;0.90;;
12059;SDS011;6091;51.432;6.880;2023-10-19T02:32:02;1.05;;;0.90;;
12059;SDS011;6091;51.432;6.880;2023-10-19T02:34:30;1.20;;;1.00;;
12059;SDS011;6091;51.432;6.880;2023-10-19T02:36:58;0.93;;;0.93;;
12059;SDS011;6091;51.432;6.880;2023-10-19T02:39:25;0.98;;;0.98;;
12059;SDS011;6091;51.432;6.880;2023-10-19T02:41:55;0.90;;;0.90;;
12059;SDS011;6091;51.432;6.880;2023-10-19T02:44:22;1.00;;;0.90;;
12059;SDS011;6091;51.432;6.880;2023-10-19T02:46:52;0.95;;;0.95;;
12059;SDS011;6091;51.432;6.880;2023-10-19T02:49:41;0.88;;;0.88;;
12059;SDS011;6091;51.432;6.880;2023-10-19T02:52:10;1.02;;;0.80;;
12059;SDS011;6091;51.432;6.880;2023-10-19T02:54:40;0.80;;;0.80;;
12059;SDS011;6091;51.432;6.880;2023-10-19T02:57:08;0.80;;;0.80;;
12059;SDS011;6091;51.432;6.880;2023-10-19T02:59:38;0.88;;;0.88;;
12059;SDS011;6091;51.432;6.880;2023-10-19T03:02:05;0.93;;;0.93;;
12059;SDS011;6091;51.432;6.880;2023-10-19T03:04:38;0.90;;;0.90;;
12059;SDS011;6091;51.432;6.880;2023-10-19T03:07:07;0.88;;;0.88;;
12059;SDS011;6091;51.432;6.880;2023-10-19T03:09:34;0.90;;;0.90;;
12059;SDS011;6091;51.432;6.880;2023-10-19T03:12:20;0.77;;;0.77;;
12059;SDS011;6091;51.432;6.880;2023-10-19T03:14:51;0.80;;;0.80;;
12059;SDS011;6091;51.432;6.880;2023-10-19T03:17:18;1.00;;;1.00;;
12059;SDS011;6091;51.432;6.880;2023-10-19T03:19:46;0.70;;;0.70;;
12059;SDS011;6091;51.432;6.880;2023-10-19T03:22:21;1.25;;;0.93;;
12059;SDS011;6091;51.432;6.880;2023-10-19T03:24:49;0.70;;;0.70;;
12059;SDS011;6091;51.432;6.880;2023-10-19T03:27:39;0.80;;;0.80;;
12059;SDS011;6091;51.432;6.880;2023-10-19T03:30:06;0.90;;;0.90;;
12059;SDS011;6091;51.432;6.880;2023-10-19T03:32:41;0.98;;;0.90;;
12059;SDS011;6091;51.432;6.880;2023-10-19T03:35:08;0.77;;;0.77;;
12059;SDS011;6091;51.432;6.880;2023-10-19T03:37:41;0.90;;;0.90;;
12059;SDS011;6091;51.432;6.880;2023-10-19T03:40:08;0.80;;;0.80;;
12059;SDS011;6091;51.432;6.880;2023-10-19T03:42:41;1.00;;;0.90;;
12059;SDS011;6091;51.432;6.880;2023-10-19T03:45:10;0.90;;;0.90;;
12059;SDS011;6091;51.432;6.880;2023-10-19T03:47:40;1.05;;;0.90;;
12059;SDS011;6091;51.432;6.880;2023-10-19T03:50:10;0.80;;;0.70;;
12059;SDS011;6091;51.432;6.880;2023-10-19T03:52:41;0.75;;;0.75;;
12059;SDS011;6091;51.432;6.880;2023-10-19T03:55:08;0.80;;;0.80;;
12059;SDS011;6091;51.432;6.880;2023-10-19T03:57:42;0.98;;;0.98;;
12059;SDS011;6091;51.432;6.880;2023-10-19T04:00:17;0.85;;;0.85;;
12059;SDS011;6091;51.432;6.880;2023-10-19T04:02:45;1.00;;;0.90;;
12059;SDS011;6091;51.432;6.880;2023-10-19T04:05:13;0.70;;;0.70;;
12059;SDS011;6091;51.432;6.880;2023-10-19T04:07:47;0.70;;;0.70;;
12059;SDS011;6091;51.432;6.880;2023-10-19T04:10:16;0.70;;;0.70;;
12059;SDS011;6091;51.432;6.880;2023-10-19T04:12:56;0.82;;;0.70;;
12059;SDS011;6091;51.432;6.880;2023-10-19T04:15:26;0.95;;;0.90;;
12059;SDS011;6091;51.432;6.880;2023-10-19T04:18:00;0.70;;;0.70;;
12059;SDS011;6091;51.432;6.880;2023-10-19T04:20:27;0.73;;;0.73;;
12059;SDS011;6091;51.432;6.880;2023-10-19T04:22:56;1.35;;;0.90;;
12059;SDS011;6091;51.432;6.880;2023-10-19T04:25:25;1.20;;;1.10;;
12059;SDS011;6091;51.432;6.880;2023-10-19T04:27:52;0.70;;;0.70;;
12059;SDS011;6091;51.432;6.880;2023-10-19T04:30:20;0.80;;;0.80;;
12059;SDS011;6091;51.432;6.880;2023-10-19T04:32:53;0.80;;;0.77;;
12059;SDS011;6091;51.432;6.880;2023-10-19T04:35:24;0.80;;;0.80;;
12059;SDS011;6091;51.432;6.880;2023-10-19T04:37:56;0.70;;;0.70;;
12059;SDS011;6091;51.432;6.880;2023-10-19T04:40:24;0.70;;;0.70;;
12059;SDS011;6091;51.432;6.880;2023-10-19T04:42:51;1.08;;;0.90;;
12059;SDS011;6091;51.432;6.880;2023-10-19T04:45:21;0.80;;;0.80;;
12059;SDS011;6091;51.432;6.880;2023-10-19T04:47:51;0.80;;;0.80;;
12059;SDS011;6091;51.432;6.880;2023-10-19T04:50:19;0.70;;;0.70;;
12059;SDS011;6091;51.432;6.880;2023-10-19T04:52:47;0.70;;;0.70;;
12059;SDS011;6091;51.432;6.880;2023-10-19T04:55:14;0.90;;;0.90;;
12059;SDS011;6091;51.432;6.880;2023-10-19T04:57:41;0.70;;;0.70;;
12059;SDS011;6091;51.432;6.880;2023-10-19T05:00:09;0.82;;;0.82;;
12059;SDS011;6091;51.432;6.880;2023-10-19T05:02:40;0.73;;;0.73;;
12059;SDS011;6091;51.432;6.880;2023-10-19T05:05:09;0.77;;;0.77;;
12059;SDS011;6091;51.432;6.880;2023-10-19T05:07:36;0.85;;;0.85;;
12059;SDS011;6091;51.432;6.880;2023-10-19T05:10:04;0.80;;;0.80;;
12059;SDS011;6091;51.432;6.880;2023-10-19T05:12:32;0.80;;;0.80;;
12059;SDS011;6091;51.432;6.880;2023-10-19T05:14:59;0.70;;;0.70;;
12059;SDS011;6091;51.432;6.880;2023-10-19T05:17:27;0.98;;;0.95;;
12059;SDS011;6091;51.432;6.880;2023-10-19T05:19:54;0.80;;;0.80;;
12059;SDS011;6091;51.432;6.880;2023-10-19T05:22:23;0.80;;;0.80;;
12059;SDS011;6091;51.432;6.880;2023-10-19T05:24:51;0.90;;;0.90;;
12059;SDS011;6091;51.432;6.880;2023-10-19T05:27:18;0.85;;;0.85;;
12059;SDS011;6091;51.432;6.880;2023-10-19T05:29:46;0.70;;;0.70;;
12059;SDS011;6091;51.432;6.880;2023-10-19T05:32:15;0.60;;;0.60;;
12059;SDS011;6091;51.432;6.880;2023-10-19T05:34:42;0.80;;;0.80;;
12059;SDS011;6091;51.432;6.880;2023-10-19T05:37:09;0.73;;;0.73;;
12059;SDS011;6091;51.432;6.880;2023-10-19T05:39:36;0.82;;;0.82;;
12059;SDS011;6091;51.432;6.880;2023-10-19T05:42:04;0.80;;;0.80;;
12059;SDS011;6091;51.432;6.880;2023-10-19T05:44:32;0.70;;;0.70;;
12059;SDS011;6091;51.432;6.880;2023-10-19T05:47:00;0.77;;;0.77;;
12059;SDS011;6091;51.432;6.880;2023-10-19T05:49:27;0.70;;;0.70;;
12059;SDS011;6091;51.432;6.880;2023-10-19T05:51:57;0.88;;;0.80;;
12059;SDS011;6091;51.432;6.880;2023-10-19T05:54:25;0.70;;;0.70;;
12059;SDS011;6091;51.432;6.880;2023-10-19T05:56:53;0.77;;;0.75;;
12059;SDS011;6091;51.432;6.880;2023-10-19T05:59:20;0.65;;;0.65;;
12059;SDS011;6091;51.432;6.880;2023-10-19T06:01:49;0.68;;;0.68;;
12059;SDS011;6091;51.432;6.880;2023-10-19T06:04:18;0.60;;;0.60;;
12059;SDS011;6091;51.432;6.880;2023-10-19T06:06:48;1.02;;;0.90;;
12059;SDS011;6091;51.432;6.880;2023-10-19T06:09:15;1.00;;;0.70;;
12059;SDS011;6091;51.432;6.880;2023-10-19T06:11:44;0.82;;;0.70;;
12059;SDS011;6091;51.432;6.880;2023-10-19T06:14:12;1.25;;;0.70;;
12059;SDS011;6091;51.432;6.880;2023-10-19T06:16:40;0.80;;;0.80;;
12059;SDS011;6091;51.432;6.880;2023-10-19T06:19:07;0.80;;;0.80;;
12059;SDS011;6091;51.432;6.880;2023-10-19T06:21:35;0.80;;;0.80;;
12059;SDS011;6091;51.432;6.880;2023-10-19T06:24:02;1.25;;;0.80;;
12059;SDS011;6091;51.432;6.880;2023-10-19T06:26:31;1.02;;;0.80;;
12059;SDS011;6091;51.432;6.880;2023-10-19T06:28:58;0.70;;;0.70;;
12059;SDS011;6091;51.432;6.880;2023-10-19T06:31:26;0.73;;;0.73;;
12059;SDS011;6091;51.432;6.880;2023-10-19T06:33:56;0.90;;;0.90;;
12059;SDS011;6091;51.432;6.880;2023-10-19T06:36:23;0.98;;;0.80;;
12059;SDS011;6091;51.432;6.880;2023-10-19T06:38:51;1.63;;;0.98;;
12059;SDS011;6091;51.432;6.880;2023-10-19T06:41:21;0.80;;;0.80;;
12059;SDS011;6091;51.432;6.880;2023-10-19T06:43:49;0.88;;;0.77;;
12059;SDS011;6091;51.432;6.880;2023-10-19T06:46:16;1.42;;;0.80;;
12059;SDS011;6091;51.432;6.880;2023-10-19T06:48:44;0.70;;;0.70;;
12059;SDS011;6091;51.432;6.880;2023-10-19T06:51:11;0.77;;;0.77;;
12059;SDS011;6091;51.432;6.880;2023-10-19T06:53:38;1.08;;;0.90;;
12059;SDS011;6091;51.432;6.880;2023-10-19T06:56:06;0.68;;;0.68;;
12059;SDS011;6091;51.432;6.880;2023-10-19T06:58:33;0.80;;;0.70;;
12059;SDS011;6091;51.432;6.880;2023-10-19T07:01:00;1.88;;;0.90;;
12059;SDS011;6091;51.432;6.880;2023-10-19T07:03:35;0.82;;;0.82;;
12059;SDS011;6091;51.432;6.880;2023-10-19T07:06:02;0.75;;;0.75;;
12059;SDS011;6091;51.432;6.880;2023-10-19T07:08:38;1.05;;;0.90;;
12059;SDS011;6091;51.432;6.880;2023-10-19T07:11:07;1.63;;;0.80;;
12059;SDS011;6091;51.432;6.880;2023-10-19T07:13:35;1.92;;;0.90;;
12059;SDS011;6091;51.432;6.880;2023-10-19T07:16:03;0.88;;;0.77;;
12059;SDS011;6091;51.432;6.880;2023-10-19T07:18:30;1.65;;;0.60;;
12059;SDS011;6091;51.432;6.880;2023-10-19T07:20:58;2.60;;;0.80;;
12059;SDS011;6091;51.432;6.880;2023-10-19T07:23:34;1.83;;;0.77;;
12059;SDS011;6091;51.432;6.880;2023-10-19T07:26:04;1.25;;;0.60;;
12059;SDS011;6091;51.432;6.880;2023-10-19T07:28:32;3.33;;;1.00;;
12059;SDS011;6091;51.432;6.880;2023-10-19T07:31:04;0.80;;;0.77;;
12059;SDS011;6091;51.432;6.880;2023-10-19T07:33:31;1.15;;;0.80;;
12059;SDS011;6091;51.432;6.880;2023-10-19T07:35:58;0.75;;;0.75;;
12059;SDS011;6091;51.432;6.880;2023-10-19T07:38:33;2.20;;;0.85;;
12059;SDS011;6091;51.432;6.880;2023-10-19T07:41:01;0.70;;;0.70;;
12059;SDS011;6091;51.432;6.880;2023-10-19T07:43:28;2.08;;;0.90;;
12059;SDS011;6091;51.432;6.880;2023-10-19T07:45:55;1.65;;;0.80;;
12059;SDS011;6091;51.432;6.880;2023-10-19T07:48:22;2.22;;;0.98;;
12059;SDS011;6091;51.432;6.880;2023-10-19T07:50:51;0.90;;;0.80;;
12059;SDS011;6091;51.432;6.880;2023-10-19T07:53:19;1.50;;;0.80;;
12059;SDS011;6091;51.432;6.880;2023-10-19T07:55:48;1.45;;;0.80;;
12059;SDS011;6091;51.432;6.880;2023-10-19T07:58:15;1.13;;;0.80;;
12059;SDS011;6091;51.432;6.880;2023-10-19T08:00:42;1.27;;;0.80;;
12059;SDS011;6091;51.432;6.880;2023-10-19T08:03:10;0.70;;;0.70;;
12059;SDS011;6091;51.432;6.880;2023-10-19T08:05:40;0.95;;;0.90;;
12059;SDS011;6091;51.432;6.880;2023-10-19T08:08:07;3.03;;;1.08;;
12059;SDS011;6091;51.432;6.880;2023-10-19T08:10:35;3.00;;;1.00;;
12059;SDS011;6091;51.432;6.880;2023-10-19T08:13:03;8.77;;;1.70;;
12059;SDS011;6091;51.432;6.880;2023-10-19T08:15:30;3.20;;;1.40;;
12059;SDS011;6091;51.432;6.880;2023-10-19T08:17:57;6.32;;;1.40;;
12059;SDS011;6091;51.432;6.880;2023-10-19T08:20:25;6.97;;;1.40;;
12059;SDS011;6091;51.432;6.880;2023-10-19T08:22:59;4.10;;;1.88;;
12059;SDS011;6091;51.432;6.880;2023-10-19T08:25:32;3.03;;;1.35;;
12059;SDS011;6091;51.432;6.880;2023-10-19T08:28:17;3.15;;;1.35;;
12059;SDS011;6091;51.432;6.880;2023-10-19T08:30:44;4.88;;;1.55;;
12059;SDS011;6091;51.432;6.880;2023-10-19T08:33:23;2.38;;;1.30;;
12059;SDS011;6091;51.432;6.880;2023-10-19T08:35:53;4.00;;;1.60;;
12059;SDS011;6091;51.432;6.880;2023-10-19T08:38:21;3.25;;;1.40;;
12059;SDS011;6091;51.432;6.880;2023-10-19T08:40:49;4.05;;;1.30;;
12059;SDS011;6091;51.432;6.880;2023-10-19T08:43:17;4.20;;;1.20;;
12059;SDS011;6091;51.432;6.880;2023-10-19T08:45:45;1.77;;;1.40;;
12059;SDS011;6091;51.432;6.880;2023-10-19T08:48:13;4.45;;;1.25;;
12059;SDS011;6091;51.432;6.880;2023-10-19T08:50:40;1.65;;;1.00;;
12059;SDS011;6091;51.432;6.880;2023-10-19T08:53:08;2.35;;;1.25;;
12059;SDS011;6091;51.432;6.880;2023-10-19T08:55:40;3.58;;;1.23;;
12059;SDS011;6091;51.432;6.880;2023-10-19T08:58:15;1.67;;;1.17;;
12059;SDS011;6091;51.432;6.880;2023-10-19T09:00:46;1.77;;;1.15;;
12059;SDS011;6091;51.432;6.880;2023-10-19T09:03:23;2.63;;;1.23;;
12059;SDS011;6091;51.432;6.880;2023-10-19T09:05:53;2.80;;;1.30;;
12059;SDS011;6091;51.432;6.880;2023-10-19T09:08:21;4.00;;;1.30;;
12059;SDS011;6091;51.432;6.880;2023-10-19T09:10:49;2.45;;;1.30;;
12059;SDS011;6091;51.432;6.880;2023-10-19T09:13:22;2.13;;;1.20;;
12059;SDS011;6091;51.432;6.880;2023-10-19T09:15:51;2.25;;;1.20;;
12059;SDS011;6091;51.432;6.880;2023-10-19T09:18:24;3.83;;;1.23;;
12059;SDS011;6091;51.432;6.880;2023-10-19T09:20:56;3.35;;;1.33;;
12059;SDS011;6091;51.432;6.880;2023-10-19T09:23:34;5.13;;;1.10;;
12059;SDS011;6091;51.432;6.880;2023-10-19T09:26:03;2.08;;;1.10;;
12059;SDS011;6091;51.432;6.880;2023-10-19T09:28:35;4.57;;;1.38;;
12059;SDS011;6091;51.432;6.880;2023-10-19T09:31:04;2.00;;;1.35;;
12059;SDS011;6091;51.432;6.880;2023-10-19T09:33:36;1.60;;;1.13;;
12059;SDS011;6091;51.432;6.880;2023-10-19T09:36:07;1.58;;;1.08;;
12059;SDS011;6091;51.432;6.880;2023-10-19T09:38:46;1.90;;;1.00;;
12059;SDS011;6091;51.432;6.880;2023-10-19T09:41:19;2.15;;;0.90;;
12059;SDS011;6091;51.432;6.880;2023-10-19T09:43:57;2.50;;;1.30;;
12059;SDS011;6091;51.432;6.880;2023-10-19T09:46:31;2.75;;;1.30;;
12059;SDS011;6091;51.432;6.880;2023-10-19T09:49:03;3.25;;;1.00;;
12059;SDS011;6091;51.432;6.880;2023-10-19T09:51:33;2.10;;;1.08;;
12059;SDS011;6091;51.432;6.880;2023-10-19T09:54:14;2.38;;;1.30;;
12059;SDS011;6091;51.432;6.880;2023-10-19T09:56:52;3.13;;;1.00;;
12059;SDS011;6091;51.432;6.880;2023-10-19T09:59:40;4.60;;;1.23;;
12059;SDS011;6091;51.432;6.880;2023-10-19T10:02:12;3.13;;;1.20;;
12059;SDS011;6091;51.432;6.880;2023-10-19T10:04:41;2.75;;;1.30;;
12059;SDS011;6091;51.432;6.880;2023-10-19T10:07:12;3.92;;;1.30;;
12059;SDS011;6091;51.432;6.880;2023-10-19T10:10:04;5.18;;;1.38;;
12059;SDS011;6091;51.432;6.880;2023-10-19T10:12:32;2.92;;;1.73;;
12059;SDS011;6091;51.432;6.880;2023-10-19T10:17:35;2.25;;;1.08;;
12059;SDS011;6091;51.432;6.880;2023-10-19T10:22:40;3.55;;;1.27;;
12059;SDS011;6091;51.432;6.880;2023-10-19T10:25:26;3.63;;;1.20;;
12059;SDS011;6091;51.432;6.880;2023-10-19T10:27:55;4.57;;;1.58;;
12059;SDS011;6091;51.432;6.880;2023-10-19T10:30:23;4.50;;;1.55;;
12059;SDS011;6091;51.432;6.880;2023-10-19T10:32:50;5.20;;;1.50;;
12059;SDS011;6091;51.432;6.880;2023-10-19T10:35:55;2.45;;;1.35;;
12059;SDS011;6091;51.432;6.880;2023-10-19T10:38:20;3.75;;;1.27;;
12059;SDS011;6091;51.432;6.880;2023-10-19T10:40:48;3.95;;;1.38;;
12059;SDS011;6091;51.432;6.880;2023-10-19T10:43:19;4.22;;;1.27;;
12059;SDS011;6091;51.432;6.880;2023-10-19T10:45:47;5.22;;;1.30;;
12059;SDS011;6091;51.432;6.880;2023-10-19T10:48:15;3.20;;;1.23;;
12059;SDS011;6091;51.432;6.880;2023-10-19T10:50:45;3.90;;;1.10;;
12059;SDS011;6091;51.432;6.880;2023-10-19T10:53:13;2.58;;;0.77;;
12059;SDS011;6091;51.432;6.880;2023-10-19T10:55:44;5.30;;;1.00;;
12059;SDS011;6091;51.432;6.880;2023-10-19T10:58:15;2.60;;;1.10;;
12059;SDS011;6091;51.432;6.880;2023-10-19T11:00:44;1.83;;;1.02;;
12059;SDS011;6091;51.432;6.880;2023-10-19T11:03:18;2.87;;;1.30;;
12059;SDS011;6091;51.432;6.880;2023-10-19T11:05:45;2.80;;;1.30;;
12059;SDS011;6091;51.432;6.880;2023-10-19T11:08:14;2.03;;;1.00;;
12059;SDS011;6091;51.432;6.880;2023-10-19T11:10:48;2.53;;;1.27;;
12059;SDS011;6091;51.432;6.880;2023-10-19T11:13:17;1.92;;;1.33;;
12059;SDS011;6091;51.432;6.880;2023-10-19T11:15:55;2.05;;;1.20;;
12059;SDS011;6091;51.432;6.880;2023-10-19T11:18:32;2.25;;;0.95;;
12059;SDS011;6091;51.432;6.880;2023-10-19T11:21:12;2.95;;;1.05;;
12059;SDS011;6091;51.432;6.880;2023-10-19T11:23:46;3.20;;;1.17;;
12059;SDS011;6091;51.432;6.880;2023-10-19T11:26:20;1.70;;;0.90;;
12059;SDS011;6091;51.432;6.880;2023-10-19T11:28:58;1.45;;;1.00;;
12059;SDS011;6091;51.432;6.880;2023-10-19T11:31:27;2.30;;;1.20;;
12059;SDS011;6091;51.432;6.880;2023-10-19T11:34:03;1.13;;;0.98;;
12059;SDS011;6091;51.432;6.880;2023-10-19T11:36:33;3.63;;;1.10;;
12059;SDS011;6091;51.432;6.880;2023-10-19T11:39:01;2.90;;;1.20;;
12059;SDS011;6091;51.432;6.880;2023-10-19T11:41:30;2.88;;;1.42;;
12059;SDS011;6091;51.432;6.880;2023-10-19T11:43:58;1.23;;;1.00;;
12059;SDS011;6091;51.432;6.880;2023-10-19T11:46:26;1.25;;;1.00;;
12059;SDS011;6091;51.432;6.880;2023-10-19T11:48:53;1.75;;;0.85;;
12059;SDS011;6091;51.432;6.880;2023-10-19T11:51:20;3.28;;;1.25;;
12059;SDS011;6091;51.432;6.880;2023-10-19T11:53:47;1.63;;;1.08;;
12059;SDS011;6091;51.432;6.880;2023-10-19T11:56:14;1.92;;;1.00;;
12059;SDS011;6091;51.432;6.880;2023-10-19T11:58:43;1.00;;;0.80;;
12059;SDS011;6091;51.432;6.880;2023-10-19T12:01:13;0.80;;;0.80;;
12059;SDS011;6091;51.432;6.880;2023-10-19T12:03:44;1.48;;;1.17;;
12059;SDS011;6091;51.432;6.880;2023-10-19T12:06:15;1.52;;;1.00;;
12059;SDS011;6091;51.432;6.880;2023-10-19T12:08:46;1.05;;;0.90;;
12059;SDS011;6091;51.432;6.880;2023-10-19T12:11:13;3.85;;;1.27;;
12059;SDS011;6091;51.432;6.880;2023-10-19T12:13:46;1.75;;;1.25;;
12059;SDS011;6091;51.432;6.880;2023-10-19T12:16:14;0.90;;;0.88;;
12059;SDS011;6091;51.432;6.880;2023-10-19T12:18:43;1.83;;;1.20;;
12059;SDS011;6091;51.432;6.880;2023-10-19T12:21:12;2.00;;;1.10;;
12059;SDS011;6091;51.432;6.880;2023-10-19T12:23:41;3.58;;;0.85;;
12059;SDS011;6091;51.432;6.880;2023-10-19T12:26:10;2.90;;;1.30;;
12059;SDS011;6091;51.432;6.880;2023-10-19T12:28:38;2.47;;;1.30;;
12059;SDS011;6091;51.432;6.880;2023-10-19T12:31:07;2.33;;;1.00;;
12059;SDS011;6091;51.432;6.880;2023-10-19T12:33:35;1.42;;;0.82;;
12059;SDS011;6091;51.432;6.880;2023-10-19T12:36:08;2.88;;;1.00;;
12059;SDS011;6091;51.432;6.880;2023-10-19T12:38:58;2.75;;;1.00;;
12059;SDS011;6091;51.432;6.880;2023-10-19T12:41:26;2.10;;;0.95;;
12059;SDS011;6091;51.432;6.880;2023-10-19T12:43:55;1.23;;;0.85;;
12059;SDS011;6091;51.432;6.880;2023-10-19T12:46:29;2.88;;;1.10;;
12059;SDS011;6091;51.432;6.880;2023-10-19T12:48:56;0.85;;;0.82;;
12059;SDS011;6091;51.432;6.880;2023-10-19T12:51:24;3.28;;;1.00;;
12059;SDS011;6091;51.432;6.880;2023-10-19T12:53:52;2.33;;;0.95;;
12059;SDS011;6091;51.432;6.880;2023-10-19T12:56:21;2.15;;;0.90;;
12059;SDS011;6091;51.432;6.880;2023-10-19T12:58:55;2.55;;;1.13;;
12059;SDS011;6091;51.432;6.880;2023-10-19T13:01:23;1.83;;;0.90;;
12059;SDS011;6091;51.432;6.880;2023-10-19T13:03:51;1.20;;;0.98;;
12059;SDS011;6091;51.432;6.880;2023-10-19T13:06:19;1.73;;;0.98;;
12059;SDS011;6091;51.432;6.880;2023-10-19T13:08:46;2.60;;;1.20;;
12059;SDS011;6091;51.432;6.880;2023-10-19T13:11:14;1.90;;;0.90;;
12059;SDS011;6091;51.432;6.880;2023-10-19T13:13:44;1.33;;;0.85;;
12059;SDS011;6091;51.432;6.880;2023-10-19T13:16:13;5.30;;;1.00;;
12059;SDS011;6091;51.432;6.880;2023-10-19T13:18:42;1.67;;;1.00;;
12059;SDS011;6091;51.432;6.880;2023-10-19T13:21:10;1.70;;;0.98;;
12059;SDS011;6091;51.432;6.880;2023-10-19T13:23:43;1.10;;;0.98;;
12059;SDS011;6091;51.432;6.880;2023-10-19T13:26:11;1.95;;;1.02;;
12059;SDS011;6091;51.432;6.880;2023-10-19T13:28:42;1.63;;;0.90;;
12059;SDS011;6091;51.432;6.880;2023-10-19T13:31:11;1.20;;;0.90;;
12059;SDS011;6091;51.432;6.880;2023-10-19T13:33:42;1.25;;;0.90;;
12059;SDS011;6091;51.432;6.880;2023-10-19T13:36:13;1.23;;;1.00;;
12059;SDS011;6091;51.432;6.880;2023-10-19T13:38:43;1.55;;;0.98;;
12059;SDS011;6091;51.432;6.880;2023-10-19T13:41:11;1.27;;;0.80;;
12059;SDS011;6091;51.432;6.880;2023-10-19T13:43:40;2.08;;;1.08;;
12059;SDS011;6091;51.432;6.880;2023-10-19T13:46:11;1.58;;;1.08;;
12059;SDS011;6091;51.432;6.880;2023-10-19T13:48:38;3.72;;;1.10;;
12059;SDS011;6091;51.432;6.880;2023-10-19T13:51:06;1.20;;;0.90;;
12059;SDS011;6091;51.432;6.880;2023-10-19T13:53:41;1.98;;;0.90;;
12059;SDS011;6091;51.432;6.880;2023-10-19T13:56:12;1.55;;;0.90;;
12059;SDS011;6091;51.432;6.880;2023-10-19T13:58:41;2.15;;;1.00;;
12059;SDS011;6091;51.432;6.880;2023-10-19T14:01:09;1.10;;;0.80;;
12059;SDS011;6091;51.432;6.880;2023-10-19T14:03:40;2.90;;;1.45;;
12059;SDS011;6091;51.432;6.880;2023-10-19T14:06:14;1.52;;;1.00;;
12059;SDS011;6091;51.432;6.880;2023-10-19T14:08:41;1.42;;;0.80;;
12059;SDS011;6091;51.432;6.880;2023-10-19T14:11:09;1.25;;;0.85;;
12059;SDS011;6091;51.432;6.880;2023-10-19T14:13:36;1.42;;;1.00;;
12059;SDS011;6091;51.432;6.880;2023-10-19T14:16:06;1.30;;;0.90;;
12059;SDS011;6091;51.432;6.880;2023-10-19T14:18:38;2.97;;;1.42;;
12059;SDS011;6091;51.432;6.880;2023-10-19T14:21:16;1.38;;;0.73;;
12059;SDS011;6091;51.432;6.880;2023-10-19T14:23:45;2.20;;;0.90;;
12059;SDS011;6091;51.432;6.880;2023-10-19T14:26:14;1.83;;;1.00;;
12059;SDS011;6091;51.432;6.880;2023-10-19T14:28:42;3.15;;;1.35;;
12059;SDS011;6091;51.432;6.880;2023-10-19T14:31:09;1.73;;;1.02;;
12059;SDS011;6091;51.432;6.880;2023-10-19T14:33:38;1.38;;;1.20;;
12059;SDS011;6091;51.432;6.880;2023-10-19T14:36:06;2.40;;;1.00;;
12059;SDS011;6091;51.432;6.880;2023-10-19T14:38:37;2.25;;;1.13;;
12059;SDS011;6091;51.432;6.880;2023-10-19T14:41:06;1.20;;;1.00;;
12059;SDS011;6091;51.432;6.880;2023-10-19T14:43:36;1.73;;;0.95;;
12059;SDS011;6091;51.432;6.880;2023-10-19T14:46:07;2.10;;;0.90;;
12059;SDS011;6091;51.432;6.880;2023-10-19T14:48:34;1.38;;;1.02;;
12059;SDS011;6091;51.432;6.880;2023-10-19T14:51:02;1.30;;;1.08;;
12059;SDS011;6091;51.432;6.880;2023-10-19T14:53:32;4.97;;;1.20;;
12059;SDS011;6091;51.432;6.880;2023-10-19T14:56:03;2.88;;;1.30;;
12059;SDS011;6091;51.432;6.880;2023-10-19T14:58:30;4.40;;;1.55;;
12059;SDS011;6091;51.432;6.880;2023-10-19T15:00:58;4.68;;;1.50;;
12059;SDS011;6091;51.432;6.880;2023-10-19T15:03:26;2.53;;;1.20;;
12059;SDS011;6091;51.432;6.880;2023-10-19T15:05:57;3.55;;;1.27;;
12059;SDS011;6091;51.432;6.880;2023-10-19T15:08:26;3.40;;;1.25;;
12059;SDS011;6091;51.432;6.880;2023-10-19T15:10:55;3.38;;;1.40;;
12059;SDS011;6091;51.432;6.880;2023-10-19T15:13:23;3.03;;;1.45;;
12059;SDS011;6091;51.432;6.880;2023-10-19T15:15:50;4.07;;;1.27;;
12059;SDS011;6091;51.432;6.880;2023-10-19T15:18:18;5.47;;;1.40;;
12059;SDS011;6091;51.432;6.880;2023-10-19T15:20:45;2.85;;;1.30;;
12059;SDS011;6091;51.432;6.880;2023-10-19T15:23:12;4.88;;;1.20;;
12059;SDS011;6091;51.432;6.880;2023-10-19T15:25:40;4.43;;;1.75;;
12059;SDS011;6091;51.432;6.880;2023-10-19T15:28:07;2.90;;;1.30;;